createdAt,value
2018-12-21T00:01:12.514Z,1.47
2018-12-21T00:03:46.037Z,1.87
2018-12-21T00:06:19.442Z,1.53
2018-12-21T00:08:53.206Z,2.13
2018-12-21T00:11:26.516Z,1.70
2018-12-21T00:18:53.967Z,1.37
2018-12-21T00:21:28.048Z,1.10
2018-12-21T00:24:02.361Z,1.20
2018-12-21T00:26:35.815Z,0.93
2018-12-21T00:29:09.036Z,1.00
2018-12-21T00:31:46.964Z,1.17
2018-12-21T00:34:27.732Z,0.70
2018-12-21T00:37:05.494Z,0.70
2018-12-21T00:39:42.950Z,0.77
2018-12-21T00:42:23.877Z,0.80
2018-12-21T00:45:06.257Z,0.80
2018-12-21T00:47:40.578Z,1.00
2018-12-21T00:50:14.636Z,1.20
2018-12-21T00:52:48.480Z,1.10
2018-12-21T00:55:22.974Z,0.97
2018-12-21T00:57:59.104Z,1.30
2018-12-21T01:00:34.160Z,1.33
2018-12-21T01:03:07.511Z,1.10
2018-12-21T01:05:40.958Z,1.60
2018-12-21T01:08:14.030Z,1.40
2018-12-21T01:10:48.148Z,2.07
2018-12-21T01:13:22.510Z,2.10
2018-12-21T01:15:56.144Z,1.67
2018-12-21T01:18:29.813Z,1.57
2018-12-21T01:21:05.480Z,1.33
2018-12-21T01:23:38.847Z,1.80
2018-12-21T01:26:12.155Z,1.67
2018-12-21T01:28:45.294Z,1.57
2018-12-21T01:31:19.800Z,1.77
2018-12-21T01:33:53.350Z,1.80
2018-12-21T01:36:26.557Z,1.80
2018-12-21T01:39:00.715Z,2.13
2018-12-21T01:41:37.855Z,1.50
2018-12-21T01:44:12.313Z,1.90
2018-12-21T01:46:45.975Z,1.53
2018-12-21T01:49:19.356Z,1.53
2018-12-21T01:51:54.459Z,1.73
2018-12-21T01:54:29.686Z,1.27
2018-12-21T01:57:04.184Z,1.50
2018-12-21T01:59:37.405Z,2.10
2018-12-21T02:02:11.370Z,1.70
2018-12-21T02:04:45.186Z,1.50
2018-12-21T02:07:18.749Z,1.30
2018-12-21T02:09:53.605Z,1.37
2018-12-21T02:12:28.575Z,1.30
2018-12-21T02:15:02.187Z,1.47
2018-12-21T02:17:36.421Z,1.80
2018-12-21T02:20:10.440Z,1.40
2018-12-21T02:22:48.450Z,1.40
2018-12-21T02:25:22.195Z,1.87
2018-12-21T02:27:57.758Z,1.87
2018-12-21T02:30:34.497Z,2.10
2018-12-21T02:33:07.987Z,1.40
2018-12-21T02:35:41.368Z,2.13
2018-12-21T02:38:15.604Z,1.80
2018-12-21T02:40:48.753Z,1.63
2018-12-21T02:43:21.896Z,1.47
2018-12-21T02:45:56.291Z,2.00
2018-12-21T02:48:29.632Z,1.80
2018-12-21T02:51:03.031Z,1.87
2018-12-21T02:53:40.589Z,1.50
2018-12-21T02:56:15.153Z,1.60
2018-12-21T02:58:48.754Z,2.67
2018-12-21T03:01:24.482Z,1.43
2018-12-21T03:03:59.590Z,1.77
2018-12-21T03:06:33.389Z,1.87
2018-12-21T03:09:11.995Z,1.47
2018-12-21T03:11:45.843Z,1.30
2018-12-21T03:14:22.787Z,2.17
2018-12-21T03:16:59.460Z,1.30
2018-12-21T03:19:35.308Z,1.40
2018-12-21T03:22:14.690Z,1.47
2018-12-21T03:24:46.923Z,1.00
2018-12-21T03:27:20.495Z,1.47
2018-12-21T03:29:58.165Z,1.87
2018-12-21T03:32:32.269Z,1.23
2018-12-21T03:35:06.451Z,1.30
2018-12-21T03:37:39.767Z,1.53
2018-12-21T03:40:12.996Z,1.53
2018-12-21T03:42:47.855Z,1.30
2018-12-21T03:45:21.302Z,1.33
2018-12-21T03:47:54.823Z,1.37
2018-12-21T03:50:27.983Z,1.50
2018-12-21T03:53:01.492Z,1.30
2018-12-21T03:55:34.945Z,1.37
2018-12-21T03:58:08.896Z,2.00
2018-12-21T04:00:42.299Z,1.80
2018-12-21T04:03:16.734Z,1.73
2018-12-21T04:05:51.121Z,2.27
2018-12-21T04:08:24.389Z,1.93
2018-12-21T04:10:59.320Z,2.33
2018-12-21T04:13:32.661Z,1.73
2018-12-21T04:16:07.901Z,2.57
2018-12-21T04:18:41.415Z,1.90
2018-12-21T04:21:18.799Z,2.20
2018-12-21T04:23:52.322Z,2.00
2018-12-21T04:26:25.754Z,2.07
2018-12-21T04:29:00.381Z,2.00
2018-12-21T04:31:33.777Z,1.93
2018-12-21T04:34:10.227Z,2.57
2018-12-21T04:36:44.841Z,2.00
2018-12-21T04:39:20.292Z,1.93
2018-12-21T04:41:53.589Z,2.63
2018-12-21T04:44:28.543Z,2.83
2018-12-21T04:47:04.604Z,2.70
2018-12-21T04:49:38.003Z,2.50
2018-12-21T04:52:11.232Z,3.20
2018-12-21T04:54:44.606Z,2.80
2018-12-21T04:57:18.584Z,2.80
2018-12-21T04:59:54.730Z,2.30
2018-12-21T05:02:28.886Z,3.07
2018-12-21T05:05:02.958Z,2.70
2018-12-21T05:07:37.470Z,3.17
2018-12-21T05:10:10.955Z,2.77
2018-12-21T05:12:45.869Z,2.67
2018-12-21T05:15:20.151Z,2.40
2018-12-21T05:17:53.906Z,2.30
2018-12-21T05:20:27.894Z,3.10
2018-12-21T05:23:03.559Z,2.00
2018-12-21T05:25:37.179Z,2.33
2018-12-21T05:28:10.845Z,2.70
2018-12-21T05:30:44.414Z,2.40
2018-12-21T05:33:19.167Z,2.43
2018-12-21T05:35:53.588Z,2.67
2018-12-21T05:38:26.970Z,3.07
2018-12-21T05:41:00.529Z,2.80
2018-12-21T05:43:34.021Z,2.30
2018-12-21T05:46:07.992Z,2.13
2018-12-21T05:48:42.249Z,2.87
2018-12-21T05:51:16.170Z,2.90
2018-12-21T05:53:50.664Z,3.13
2018-12-21T05:56:23.906Z,2.63
2018-12-21T05:58:58.416Z,3.23
2018-12-21T06:01:31.622Z,2.70
2018-12-21T06:04:05.548Z,3.03
2018-12-21T06:06:39.232Z,2.77
2018-12-21T06:09:13.659Z,2.93
2018-12-21T06:11:50.082Z,3.17
2018-12-21T06:14:23.504Z,2.87
2018-12-21T06:16:56.939Z,2.43
2018-12-21T06:19:31.037Z,3.40
2018-12-21T06:22:04.215Z,2.87
2018-12-21T06:24:41.533Z,2.97
2018-12-21T06:27:15.656Z,3.33
2018-12-21T06:29:49.610Z,2.77
2018-12-21T06:32:23.970Z,2.90
2018-12-21T06:34:58.062Z,3.67
2018-12-21T06:37:33.947Z,3.00
2018-12-21T06:40:09.431Z,3.30
2018-12-21T06:42:50.770Z,3.07
2018-12-21T06:45:24.501Z,3.33
2018-12-21T06:47:58.555Z,3.17
2018-12-21T06:50:33.183Z,3.57
2018-12-21T06:53:06.731Z,2.80
2018-12-21T06:55:40.823Z,3.37
2018-12-21T06:58:14.275Z,3.40
2018-12-21T07:00:47.679Z,2.80
2018-12-21T07:03:22.146Z,3.23
2018-12-21T07:05:55.377Z,2.97
2018-12-21T07:08:28.914Z,3.67
2018-12-21T07:11:02.355Z,3.97
2018-12-21T07:13:35.568Z,2.90
2018-12-21T07:16:08.766Z,3.47
2018-12-21T07:18:43.288Z,3.50
2018-12-21T07:21:19.452Z,3.20
2018-12-21T07:23:52.772Z,4.00
2018-12-21T07:26:26.392Z,3.97
2018-12-21T07:28:59.751Z,3.10
2018-12-21T07:31:33.185Z,2.93
2018-12-21T07:34:06.618Z,3.27
2018-12-21T07:36:40.228Z,2.87
2018-12-21T07:39:13.770Z,4.17
2018-12-21T07:41:46.814Z,2.60
2018-12-21T07:44:21.933Z,3.37
2018-12-21T07:46:56.564Z,3.27
2018-12-21T07:49:30.437Z,3.30
2018-12-21T07:52:05.032Z,3.20
2018-12-21T07:54:38.327Z,2.50
2018-12-21T07:57:12.357Z,2.77
2018-12-21T07:59:45.966Z,3.30
2018-12-21T08:02:19.435Z,2.40
2018-12-21T08:04:52.673Z,2.73
2018-12-21T08:07:26.461Z,3.13
2018-12-21T08:10:00.033Z,3.30
2018-12-21T08:12:33.116Z,2.93
2018-12-21T08:15:06.542Z,2.73
2018-12-21T08:17:39.610Z,3.10
2018-12-21T08:20:13.385Z,2.83
2018-12-21T08:22:47.319Z,2.70
2018-12-21T08:25:20.620Z,3.37
2018-12-21T08:27:55.057Z,2.50
2018-12-21T08:30:28.710Z,3.47
2018-12-21T08:33:03.464Z,3.43
2018-12-21T08:35:37.166Z,3.37
2018-12-21T08:38:10.453Z,2.97
2018-12-21T08:40:43.615Z,3.20
2018-12-21T08:43:16.787Z,3.03
2018-12-21T08:45:51.840Z,2.50
2018-12-21T08:48:26.089Z,2.63
2018-12-21T08:51:00.217Z,3.37
2018-12-21T08:53:33.628Z,2.87
2018-12-21T08:56:07.943Z,2.70
2018-12-21T08:58:41.888Z,2.23
2018-12-21T09:01:15.162Z,2.90
2018-12-21T09:03:48.377Z,3.10
2018-12-21T09:06:22.938Z,2.50
2018-12-21T09:08:56.356Z,2.53
2018-12-21T09:11:29.669Z,2.67
2018-12-21T09:14:07.090Z,2.60
2018-12-21T09:16:40.646Z,2.93
2018-12-21T09:19:14.526Z,2.53
2018-12-21T09:21:47.691Z,2.50
2018-12-21T09:24:21.531Z,2.80
2018-12-21T09:26:54.793Z,2.37
2018-12-21T09:29:28.034Z,2.43
2018-12-21T09:32:05.133Z,2.47
2018-12-21T09:34:37.126Z,3.23
2018-12-21T09:37:10.715Z,3.23
2018-12-21T09:39:46.084Z,2.97
2018-12-21T09:42:20.123Z,3.00
2018-12-21T09:44:53.921Z,2.80
2018-12-21T09:47:26.905Z,2.07
2018-12-21T09:50:00.025Z,2.77
2018-12-21T09:52:33.463Z,2.40
2018-12-21T09:55:06.689Z,2.77
2018-12-21T09:57:40.221Z,2.20
2018-12-21T10:00:14.728Z,2.97
2018-12-21T10:02:48.108Z,3.10
2018-12-21T10:05:21.370Z,2.73
2018-12-21T10:07:55.449Z,2.13
2018-12-21T10:10:29.578Z,2.93
2018-12-21T10:13:02.869Z,3.03
2018-12-21T10:15:36.748Z,2.70
2018-12-21T10:18:10.048Z,2.60
2018-12-21T10:20:43.690Z,2.33
2018-12-21T10:23:18.126Z,2.43
2018-12-21T10:25:53.098Z,2.40
2018-12-21T10:28:28.747Z,2.17
2018-12-21T10:31:02.206Z,2.67
2018-12-21T10:33:35.333Z,2.23
2018-12-21T10:36:08.613Z,2.20
2018-12-21T10:38:43.586Z,2.27
2018-12-21T10:41:18.193Z,2.07
2018-12-21T10:43:53.498Z,2.97
2018-12-21T10:46:27.325Z,1.87
2018-12-21T10:49:01.648Z,2.30
2018-12-21T10:51:35.547Z,2.70
2018-12-21T10:54:10.704Z,2.20
2018-12-21T10:56:44.137Z,2.17
2018-12-21T10:59:21.056Z,2.10
2018-12-21T11:01:53.016Z,1.90
2018-12-21T11:04:26.451Z,2.70
2018-12-21T11:06:59.558Z,1.73
2018-12-21T11:09:32.737Z,2.63
2018-12-21T11:12:07.161Z,2.30
2018-12-21T11:14:40.367Z,2.40
2018-12-21T11:17:13.971Z,2.60
2018-12-21T11:19:47.416Z,2.33
2018-12-21T11:22:20.593Z,2.70
2018-12-21T11:24:53.882Z,2.17
2018-12-21T11:27:28.027Z,2.83
2018-12-21T11:30:01.315Z,2.33
2018-12-21T11:32:34.674Z,2.33
2018-12-21T11:35:08.208Z,2.33
2018-12-21T11:37:41.511Z,2.40
2018-12-21T11:40:15.010Z,2.67
2018-12-21T11:42:48.305Z,2.43
2018-12-21T11:45:21.455Z,2.03
2018-12-21T11:47:54.802Z,2.10
2018-12-21T11:50:28.929Z,2.07
2018-12-21T11:53:05.080Z,2.30
2018-12-21T11:55:38.624Z,2.37
2018-12-21T11:58:12.012Z,2.50
2018-12-21T12:00:46.269Z,2.20
2018-12-21T12:03:20.119Z,2.30
2018-12-21T12:05:54.764Z,2.30
2018-12-21T12:08:30.274Z,2.77
2018-12-21T12:11:04.518Z,2.30
2018-12-21T12:13:37.863Z,2.53
2018-12-21T12:16:11.245Z,2.20
2018-12-21T12:18:44.689Z,2.10
2018-12-21T12:21:18.055Z,2.00
2018-12-21T12:23:51.298Z,2.10
2018-12-21T12:26:24.878Z,2.50
2018-12-21T12:28:58.383Z,2.50
2018-12-21T12:31:31.771Z,2.40
2018-12-21T12:34:05.466Z,1.93
2018-12-21T12:36:38.964Z,2.50
2018-12-21T12:39:12.181Z,2.10
2018-12-21T12:41:45.457Z,1.90
2018-12-21T12:44:18.814Z,2.10
2018-12-21T12:46:51.872Z,1.90
2018-12-21T12:49:27.951Z,2.30
2018-12-21T12:52:01.948Z,2.33
2018-12-21T12:54:35.304Z,2.27
2018-12-21T12:57:09.295Z,1.97
2018-12-21T12:59:42.578Z,1.90
2018-12-21T13:02:15.769Z,1.90
2018-12-21T13:04:49.058Z,2.07
2018-12-21T13:07:22.220Z,2.40
2018-12-21T13:09:55.775Z,1.90
2018-12-21T13:12:28.840Z,2.53
2018-12-21T13:15:02.282Z,1.67
2018-12-21T13:17:35.557Z,2.50
2018-12-21T13:20:11.472Z,2.47
2018-12-21T13:22:45.055Z,2.33
2018-12-21T13:25:18.483Z,1.93
2018-12-21T13:27:52.045Z,1.80
2018-12-21T13:30:25.943Z,1.93
2018-12-21T13:33:00.213Z,2.57
2018-12-21T13:35:35.079Z,2.87
2018-12-21T13:38:08.315Z,2.67
2018-12-21T13:40:41.635Z,2.10
2018-12-21T13:43:15.418Z,2.40
2018-12-21T13:45:48.699Z,2.73
2018-12-21T13:48:22.284Z,1.90
2018-12-21T13:50:55.673Z,2.50
2018-12-21T13:53:29.164Z,2.73
2018-12-21T13:56:02.477Z,2.37
2018-12-21T13:58:35.860Z,2.80
2018-12-21T14:01:10.606Z,2.60
2018-12-21T14:03:43.825Z,2.23
2018-12-21T14:06:17.192Z,2.50
2018-12-21T14:08:51.023Z,2.50
2018-12-21T14:11:24.096Z,2.37
2018-12-21T14:13:57.372Z,2.33
2018-12-21T14:16:31.404Z,2.37
2018-12-21T14:19:04.851Z,2.53
2018-12-21T14:21:37.875Z,1.90
2018-12-21T14:24:11.213Z,2.93
2018-12-21T14:26:45.618Z,2.50
2018-12-21T14:29:20.998Z,1.70
2018-12-21T14:31:54.248Z,1.93
2018-12-21T14:34:28.027Z,2.00
2018-12-21T14:37:01.124Z,2.20
2018-12-21T14:39:34.964Z,2.77
2018-12-21T14:42:08.414Z,2.70
2018-12-21T14:44:41.827Z,2.50
2018-12-21T14:47:14.933Z,2.50
2018-12-21T14:49:48.179Z,2.30
2018-12-21T14:52:22.091Z,2.10
2018-12-21T14:54:56.780Z,2.57
2018-12-21T15:01:19.579Z,2.27
2018-12-21T15:03:54.334Z,2.07
2018-12-21T15:06:27.424Z,2.43
2018-12-21T15:09:00.974Z,1.60
2018-12-21T15:11:34.058Z,2.27
2018-12-21T15:14:07.483Z,2.37
2018-12-21T15:16:41.004Z,2.10
2018-12-21T15:19:15.081Z,2.27
2018-12-21T15:21:48.051Z,2.33
2018-12-21T15:24:21.653Z,2.20
2018-12-21T15:26:54.666Z,1.83
2018-12-21T15:29:27.659Z,2.20
2018-12-21T15:32:02.947Z,2.03
2018-12-21T15:34:37.931Z,2.27
2018-12-21T15:37:11.326Z,2.93
2018-12-21T15:39:44.571Z,2.13
2018-12-21T15:42:17.993Z,2.20
2018-12-21T15:44:51.630Z,2.03
2018-12-21T15:47:25.304Z,2.93
2018-12-21T15:49:58.568Z,2.43
2018-12-21T15:52:32.389Z,2.13
2018-12-21T15:55:05.812Z,2.30
2018-12-21T15:57:39.438Z,2.33
2018-12-21T16:00:16.720Z,2.23
2018-12-21T16:02:54.383Z,2.00
2018-12-21T16:05:28.401Z,1.90
2018-12-21T16:08:05.283Z,2.00
2018-12-21T16:10:38.673Z,2.87
2018-12-21T16:13:11.584Z,1.80
2018-12-21T16:15:45.088Z,2.03
2018-12-21T16:18:18.529Z,2.20
2018-12-21T16:20:53.393Z,2.80
2018-12-21T16:23:26.928Z,2.80
2018-12-21T16:26:03.626Z,2.40
2018-12-21T16:28:35.640Z,3.10
2018-12-21T16:31:08.912Z,2.63
2018-12-21T16:33:42.416Z,2.37
2018-12-21T16:36:15.572Z,2.37
2018-12-21T16:38:48.914Z,2.17
2018-12-21T16:41:22.287Z,1.90
2018-12-21T16:43:55.848Z,2.17
2018-12-21T16:46:29.267Z,2.30
2018-12-21T16:49:02.300Z,2.00
2018-12-21T16:51:35.445Z,2.03
2018-12-21T16:54:08.604Z,2.70
2018-12-21T16:56:43.150Z,1.70
2018-12-21T16:59:17.909Z,2.10
2018-12-21T17:01:51.549Z,1.77
2018-12-21T17:04:26.095Z,1.70
2018-12-21T17:07:00.092Z,2.00
2018-12-21T17:09:33.564Z,1.83
2018-12-21T17:12:06.697Z,1.63
2018-12-21T17:14:39.973Z,2.90
2018-12-21T17:17:13.354Z,1.90
2018-12-21T17:19:46.630Z,2.10
2018-12-21T17:22:19.952Z,2.37
2018-12-21T17:24:53.721Z,2.43
2018-12-21T17:27:27.967Z,2.37
2018-12-21T17:30:01.334Z,1.73
2018-12-21T17:32:34.970Z,2.33
2018-12-21T17:35:10.957Z,2.50
2018-12-21T17:37:44.562Z,2.50
2018-12-21T17:40:19.394Z,2.43
2018-12-21T17:42:53.028Z,2.63
2018-12-21T17:45:26.164Z,3.13
2018-12-21T17:47:59.681Z,2.93
2018-12-21T17:50:35.054Z,3.30
2018-12-21T17:53:08.389Z,3.57
2018-12-21T17:55:41.532Z,3.20
2018-12-21T17:58:15.369Z,2.77
2018-12-21T18:00:49.507Z,2.80
2018-12-21T18:03:46.609Z,3.27
2018-12-21T18:06:21.081Z,3.03
2018-12-21T18:08:55.115Z,2.70
2018-12-21T18:11:28.190Z,2.43
2018-12-21T18:14:02.892Z,2.50
2018-12-21T18:16:36.293Z,2.23
2018-12-21T18:19:09.669Z,2.10
2018-12-21T18:21:57.033Z,2.60
2018-12-21T18:24:32.413Z,3.17
2018-12-21T18:27:05.747Z,2.10
2018-12-21T18:29:42.197Z,2.13
2018-12-21T18:32:39.616Z,2.67
2018-12-21T18:35:19.595Z,2.80
2018-12-21T18:37:57.675Z,2.10
2018-12-21T18:40:31.378Z,2.20
2018-12-21T18:43:04.819Z,2.10
2018-12-21T18:45:38.032Z,2.23
2018-12-21T18:48:12.287Z,2.33
2018-12-21T18:50:49.011Z,2.37
2018-12-21T18:53:22.961Z,2.07
2018-12-21T18:55:57.215Z,2.20
2018-12-21T18:58:31.874Z,1.77
2018-12-21T19:01:07.261Z,2.13
2018-12-21T19:03:40.457Z,1.77
2018-12-21T19:06:14.666Z,2.43
2018-12-21T19:08:49.181Z,2.57
2018-12-21T19:11:22.874Z,2.33
2018-12-21T19:13:57.336Z,2.00
2018-12-21T19:16:32.141Z,2.40
2018-12-21T19:19:05.595Z,2.13
2018-12-21T19:21:40.924Z,2.47
2018-12-21T19:24:15.776Z,2.30
2018-12-21T19:26:55.751Z,2.47
2018-12-21T19:29:25.588Z,2.17
2018-12-21T19:31:58.654Z,2.40
2018-12-21T19:34:31.853Z,2.50
2018-12-21T19:37:07.564Z,2.70
2018-12-21T19:39:41.054Z,2.17
2018-12-21T19:42:14.526Z,2.63
2018-12-21T19:44:48.498Z,2.47
2018-12-21T19:47:21.935Z,2.77
2018-12-21T19:49:56.056Z,2.07
2018-12-21T19:52:29.962Z,2.00
2018-12-21T19:55:11.523Z,2.80
2018-12-21T19:57:44.853Z,2.10
2018-12-21T20:00:20.922Z,2.23
2018-12-21T20:02:56.912Z,2.33
2018-12-21T20:05:30.617Z,1.97
2018-12-21T20:08:03.960Z,2.40
2018-12-21T20:10:38.987Z,2.00
2018-12-21T20:13:14.421Z,2.30
2018-12-21T20:15:49.685Z,1.97
2018-12-21T20:18:25.930Z,1.97
2018-12-21T20:21:00.390Z,2.07
2018-12-21T20:23:35.259Z,1.87
2018-12-21T20:26:13.119Z,1.67
2018-12-21T20:28:46.404Z,2.37
2018-12-21T20:31:20.468Z,2.40
2018-12-21T20:33:54.956Z,2.30
2018-12-21T20:36:30.250Z,1.90
2018-12-21T20:39:04.063Z,1.80
2018-12-21T20:41:37.177Z,1.90
2018-12-21T20:44:10.742Z,2.40
2018-12-21T20:46:44.176Z,2.27
2018-12-21T20:49:17.699Z,1.77
2018-12-21T20:51:51.765Z,1.50
2018-12-21T20:54:25.985Z,2.03
2018-12-21T20:57:01.512Z,1.80
2018-12-21T20:59:36.136Z,1.83
2018-12-21T21:02:09.376Z,1.70
2018-12-21T21:04:42.760Z,1.60
2018-12-21T21:07:17.517Z,1.43
2018-12-21T21:09:51.661Z,1.37
2018-12-21T21:12:25.740Z,1.43
2018-12-21T21:14:59.784Z,1.50
2018-12-21T21:17:36.033Z,1.43
2018-12-21T21:20:14.469Z,1.97
2018-12-21T21:22:48.647Z,1.50
2018-12-21T21:25:21.995Z,1.67
2018-12-21T21:27:59.180Z,1.37
2018-12-21T21:30:41.697Z,1.53
2018-12-21T21:33:16.706Z,1.57
2018-12-21T21:35:57.449Z,2.07
2018-12-21T21:38:31.291Z,1.37
2018-12-21T21:41:06.485Z,1.67
2018-12-21T21:43:39.925Z,1.70
2018-12-21T21:46:17.590Z,1.37
2018-12-21T21:48:51.721Z,2.30
2018-12-21T21:51:25.771Z,2.57
2018-12-21T21:53:59.749Z,2.27
2018-12-21T21:56:33.822Z,2.13
2018-12-21T21:59:08.968Z,1.83
2018-12-21T22:01:45.718Z,1.87
2018-12-21T22:04:19.013Z,2.30
2018-12-21T22:06:52.462Z,2.60
2018-12-21T22:09:25.606Z,2.37
2018-12-21T22:12:00.185Z,2.83
2018-12-21T22:14:33.847Z,2.47
2018-12-21T22:17:08.945Z,2.80
2018-12-21T22:19:43.378Z,2.50
2018-12-21T22:22:20.369Z,2.20
2018-12-21T22:24:55.032Z,2.13
2018-12-21T22:27:29.466Z,2.27
2018-12-21T22:30:03.009Z,2.63
2018-12-21T22:32:37.395Z,2.27
2018-12-21T22:35:11.191Z,2.37
2018-12-21T22:37:44.457Z,2.70
2018-12-21T22:40:18.612Z,2.30
2018-12-21T22:42:52.870Z,2.40
2018-12-21T22:45:26.897Z,1.80
2018-12-21T22:48:04.520Z,2.60
2018-12-21T22:50:38.722Z,2.27
2018-12-21T22:53:12.020Z,2.90
2018-12-21T22:55:45.651Z,2.40
2018-12-21T22:58:22.184Z,2.77
2018-12-21T23:00:57.956Z,2.90
2018-12-21T23:03:34.064Z,2.13
2018-12-21T23:06:08.120Z,2.60
2018-12-21T23:08:48.382Z,2.53
2018-12-21T23:11:21.839Z,2.37
2018-12-21T23:13:59.806Z,2.50
2018-12-21T23:16:40.742Z,2.67
2018-12-21T23:19:16.389Z,2.57
2018-12-21T23:21:52.275Z,3.03
2018-12-21T23:24:29.643Z,2.73
2018-12-21T23:27:10.819Z,3.07
2018-12-21T23:29:48.586Z,2.90
2018-12-21T23:32:21.969Z,2.87
2018-12-21T23:34:57.056Z,2.70
2018-12-21T23:37:30.414Z,3.30
2018-12-21T23:40:04.945Z,2.67
2018-12-21T23:42:39.034Z,3.30
2018-12-21T23:45:14.226Z,3.77
2018-12-21T23:47:48.258Z,2.97
2018-12-21T23:50:21.399Z,2.97
2018-12-21T23:52:58.367Z,3.50
2018-12-21T23:55:32.407Z,3.07
2018-12-21T23:58:13.484Z,3.53
